Time;durP1;ratioP1;P1;durP2;ratioP2;P2;SDS_P1;SDS_P2;PMS_P1;PMS_P2;Temp;Humidity;BMP_temperature;BMP_pressure;BME280_temperature;BME280_humidity;BME280_pressure;Samples;Min_cycle;Max_cycle;Signal;HPM_P1;HPM_P2
2021/05/14 00:00:39;;;;;;;3.90;2.97;;;11.20;99.90;;;;;;5071933;28;20029;-55
2021/05/14 00:03:05;;;;;;;3.92;3.25;;;11.20;99.90;;;;;;5071603;28;20074;-53
2021/05/14 00:05:32;;;;;;;4.65;3.20;;;11.20;99.90;;;;;;5070770;28;20422;-53
2021/05/14 00:07:58;;;;;;;5.20;3.35;;;11.20;99.90;;;;;;5072713;28;20112;-53
2021/05/14 00:10:24;;;;;;;6.88;3.80;;;11.20;99.90;;;;;;5071351;28;20445;-54
2021/05/14 00:12:50;;;;;;;5.10;3.42;;;11.20;99.90;;;;;;5072889;28;20448;-53
2021/05/14 00:15:17;;;;;;;6.03;3.53;;;11.20;99.90;;;;;;5071432;28;20059;-53
2021/05/14 00:17:43;;;;;;;5.20;3.35;;;11.10;99.90;;;;;;5070372;28;20051;-57
2021/05/14 00:20:09;;;;;;;5.20;3.53;;;11.10;99.90;;;;;;5071044;28;20071;-55
2021/05/14 00:22:35;;;;;;;5.15;3.58;;;11.10;99.90;;;;;;5069057;28;20371;-57
2021/05/14 00:25:00;;;;;;;4.82;3.70;;;11.10;99.90;;;;;;5071184;28;20037;-57
2021/05/14 00:27:26;;;;;;;6.50;4.03;;;11.00;99.90;;;;;;5070233;28;20025;-57
2021/05/14 00:29:51;;;;;;;9.60;4.80;;;11.00;99.90;;;;;;5070767;28;20100;-56
2021/05/14 00:32:17;;;;;;;5.10;4.22;;;10.90;99.90;;;;;;5077099;28;20068;-57
2021/05/14 00:34:43;;;;;;;7.80;4.60;;;10.80;99.90;;;;;;5040473;28;20025;-57
2021/05/14 00:37:08;;;;;;;6.85;5.55;;;10.80;99.90;;;;;;5069554;28;20487;-55
2021/05/14 00:39:34;;;;;;;11.68;5.68;;;10.80;99.90;;;;;;5071022;28;20514;-53
2021/05/14 00:42:00;;;;;;;7.10;4.65;;;10.80;99.90;;;;;;5074751;28;20028;-56
2021/05/14 00:44:33;;;;;;;8.25;5.30;;;10.70;99.90;;;;;;5070533;28;20047;-55
2021/05/14 00:47:01;;;;;;;7.45;4.35;;;10.70;99.90;;;;;;5073499;28;20081;-57
2021/05/14 00:49:27;;;;;;;10.02;5.65;;;10.70;99.90;;;;;;5070270;28;20017;-54
2021/05/14 00:51:55;;;;;;;9.40;4.90;;;10.60;99.90;;;;;;5074732;28;20089;-54
2021/05/14 00:54:20;;;;;;;8.77;6.32;;;10.60;99.90;;;;;;5070048;28;20024;-57
2021/05/14 00:56:46;;;;;;;8.00;6.10;;;10.60;99.90;;;;;;5070532;28;20025;-54
2021/05/14 00:59:12;;;;;;;9.88;5.95;;;10.50;99.90;;;;;;5070334;28;20063;-54
2021/05/14 01:01:38;;;;;;;8.63;6.28;;;10.50;99.90;;;;;;5073295;28;20071;-56
2021/05/14 01:04:04;;;;;;;14.27;6.97;;;10.50;99.90;;;;;;5069715;28;20028;-56
2021/05/14 01:06:30;;;;;;;10.25;6.47;;;10.50;99.90;;;;;;5070862;28;20016;-57
2021/05/14 01:08:58;;;;;;;9.38;6.93;;;10.50;99.90;;;;;;5070006;28;20025;-53
2021/05/14 01:11:24;;;;;;;11.00;7.53;;;10.50;99.90;;;;;;5072191;28;20022;-56
2021/05/14 01:13:49;;;;;;;11.90;8.82;;;10.50;99.90;;;;;;5068973;28;20028;-58
2021/05/14 01:16:15;;;;;;;9.77;7.57;;;10.50;99.90;;;;;;5069725;28;20037;-56
2021/05/14 01:18:41;;;;;;;10.77;8.60;;;10.50;99.90;;;;;;5070257;28;20430;-56
2021/05/14 01:21:06;;;;;;;13.63;9.13;;;10.40;99.90;;;;;;5069953;28;20025;-54
2021/05/14 01:23:32;;;;;;;11.25;8.27;;;10.40;99.90;;;;;;5070531;28;20025;-54
2021/05/14 01:25:57;;;;;;;12.45;7.65;;;10.30;99.90;;;;;;5069702;28;20139;-56
2021/05/14 01:28:23;;;;;;;13.10;8.18;;;10.20;99.90;;;;;;5069697;28;20031;-57
2021/05/14 01:30:49;;;;;;;11.02;8.50;;;10.10;99.90;;;;;;5069835;28;20036;-53
2021/05/14 01:33:14;;;;;;;14.05;8.95;;;10.10;99.90;;;;;;5069939;28;20025;-53
2021/05/14 01:35:40;;;;;;;10.70;7.65;;;10.00;99.90;;;;;;5070109;28;20036;-56
2021/05/14 01:38:07;;;;;;;10.48;7.40;;;10.00;99.90;;;;;;5070168;28;20094;-54
2021/05/14 01:40:36;;;;;;;11.43;8.18;;;10.10;99.90;;;;;;5069727;28;20107;-54
2021/05/14 01:43:03;;;;;;;12.65;8.30;;;10.00;99.90;;;;;;5067853;28;20502;-56
2021/05/14 01:45:28;;;;;;;20.45;10.35;;;10.00;99.90;;;;;;5069594;28;20223;-54
2021/05/14 01:47:54;;;;;;;11.57;8.23;;;9.90;99.90;;;;;;5073632;28;20451;-57
2021/05/14 01:50:20;;;;;;;13.55;8.90;;;9.90;99.90;;;;;;5042095;28;20483;-53
2021/05/14 01:52:46;;;;;;;10.65;8.52;;;9.90;99.90;;;;;;5074420;28;20111;-56
2021/05/14 01:55:12;;;;;;;11.73;9.18;;;9.90;99.90;;;;;;5070510;28;20482;-56
2021/05/14 01:57:38;;;;;;;13.25;8.32;;;9.90;99.90;;;;;;5070535;28;20029;-58
2021/05/14 02:00:05;;;;;;;18.55;9.75;;;9.80;99.90;;;;;;5069464;28;20088;-56
2021/05/14 02:02:31;;;;;;;12.55;8.15;;;9.80;99.90;;;;;;5073771;28;20021;-57
2021/05/14 02:04:56;;;;;;;12.68;8.13;;;9.80;99.90;;;;;;5069690;28;20070;-54
2021/05/14 02:07:22;;;;;;;10.25;7.45;;;9.80;99.90;;;;;;5069736;28;20040;-56
2021/05/14 02:09:48;;;;;;;10.63;7.68;;;9.70;99.90;;;;;;5069054;28;20637;-56
2021/05/14 02:12:14;;;;;;;13.55;7.80;;;9.70;99.90;;;;;;5072052;28;20025;-54
2021/05/14 02:14:39;;;;;;;11.25;8.02;;;9.80;99.90;;;;;;5069114;28;20444;-56
2021/05/14 02:17:05;;;;;;;10.20;7.20;;;9.80;99.90;;;;;;5070148;28;20036;-56
2021/05/14 02:19:30;;;;;;;17.73;8.02;;;9.80;99.90;;;;;;5069267;28;20430;-55
2021/05/14 02:21:56;;;;;;;11.90;6.93;;;9.70;99.90;;;;;;5071582;28;20055;-53
2021/05/14 02:24:22;;;;;;;10.80;6.97;;;9.70;99.90;;;;;;5069465;28;20031;-53
2021/05/14 02:26:47;;;;;;;13.45;7.00;;;9.70;99.90;;;;;;5069356;28;20021;-56
2021/05/14 02:29:13;;;;;;;9.23;6.80;;;9.60;99.90;;;;;;5070120;28;20117;-55
2021/05/14 02:31:38;;;;;;;10.13;6.30;;;9.60;99.90;;;;;;5074342;28;20020;-55
2021/05/14 02:34:04;;;;;;;10.63;7.30;;;9.60;99.90;;;;;;5073175;28;20032;-54
2021/05/14 02:36:29;;;;;;;9.52;6.95;;;9.50;99.90;;;;;;5073442;28;20029;-55
2021/05/14 02:38:55;;;;;;;10.68;6.80;;;9.40;99.90;;;;;;5073321;28;20513;-53
2021/05/14 02:41:21;;;;;;;12.77;7.45;;;9.40;99.90;;;;;;5073342;28;20495;-55
2021/05/14 02:43:46;;;;;;;8.65;7.35;;;9.40;99.90;;;;;;5071555;28;20491;-57
2021/05/14 02:46:12;;;;;;;9.57;6.72;;;9.40;99.90;;;;;;5073598;28;20028;-53
2021/05/14 02:48:38;;;;;;;11.48;7.10;;;9.30;99.90;;;;;;5075294;28;20483;-53
2021/05/14 02:51:05;;;;;;;11.15;7.43;;;9.30;99.90;;;;;;5072606;28;20067;-57
2021/05/14 02:53:31;;;;;;;10.13;6.93;;;9.30;99.90;;;;;;5076495;28;20039;-56
2021/05/14 02:55:56;;;;;;;11.85;6.65;;;9.20;99.90;;;;;;5072302;28;20025;-55
2021/05/14 02:58:22;;;;;;;9.85;6.88;;;9.20;99.90;;;;;;5072844;28;20486;-56
2021/05/14 03:00:47;;;;;;;11.95;7.30;;;9.20;99.90;;;;;;5072067;28;20095;-55
2021/05/14 03:03:13;;;;;;;9.48;6.95;;;9.10;99.90;;;;;;5075986;28;20025;-57
2021/05/14 03:05:39;;;;;;;9.57;5.63;;;9.10;99.90;;;;;;5073040;28;20043;-56
2021/05/14 03:08:04;;;;;;;9.45;6.03;;;9.10;99.90;;;;;;5072709;28;20066;-57
2021/05/14 03:10:30;;;;;;;16.58;6.80;;;9.10;99.90;;;;;;5072916;28;20025;-55
2021/05/14 03:12:56;;;;;;;13.45;6.90;;;9.10;99.90;;;;;;5072573;28;20029;-57
2021/05/14 03:15:21;;;;;;;8.70;5.50;;;9.10;99.90;;;;;;5072342;28;20036;-57
2021/05/14 03:17:47;;;;;;;11.35;5.75;;;9.00;99.90;;;;;;5074170;28;20040;-56
2021/05/14 03:20:13;;;;;;;13.75;6.40;;;9.00;99.90;;;;;;5071992;28;20478;-54
2021/05/14 03:22:39;;;;;;;8.77;5.93;;;8.90;99.90;;;;;;5075660;28;20077;-56
2021/05/14 03:25:08;;;;;;;12.05;6.40;;;8.90;99.90;;;;;;5069519;28;20029;-54
2021/05/14 03:27:33;;;;;;;7.55;5.25;;;8.90;99.90;;;;;;5072303;28;20052;-56
2021/05/14 03:29:59;;;;;;;7.75;5.82;;;8.80;99.90;;;;;;5071208;28;20047;-56
2021/05/14 03:32:25;;;;;;;7.13;5.28;;;8.80;99.90;;;;;;5074649;28;20026;-54
2021/05/14 03:34:51;;;;;;;8.18;5.50;;;8.80;99.90;;;;;;5072115;28;20525;-54
2021/05/14 03:37:16;;;;;;;11.75;5.90;;;8.80;99.90;;;;;;5072197;28;20032;-52
2021/05/14 03:39:45;;;;;;;10.73;5.00;;;8.80;99.90;;;;;;5071898;28;20107;-53
2021/05/14 03:42:43;;;;;;;9.00;5.53;;;8.80;99.90;;;;;;5071889;28;20032;-59
2021/05/14 03:45:02;;;;;;;8.45;5.53;;;8.80;99.90;;;;;;5067375;28;20042;-56
2021/05/14 03:47:28;;;;;;;8.43;5.25;;;8.80;99.90;;;;;;5064631;28;20107;-57
2021/05/14 03:49:53;;;;;;;7.88;5.53;;;8.80;99.90;;;;;;5071691;28;20043;-53
2021/05/14 03:52:19;;;;;;;12.90;5.47;;;8.80;99.90;;;;;;5072395;28;20389;-54
2021/05/14 03:54:45;;;;;;;12.20;6.18;;;8.80;99.90;;;;;;5071885;28;20064;-56
2021/05/14 03:57:10;;;;;;;16.17;7.28;;;8.80;99.90;;;;;;5071647;28;20032;-56
2021/05/14 03:59:38;;;;;;;11.63;5.50;;;8.80;99.90;;;;;;5071949;28;20028;-56
2021/05/14 04:02:04;;;;;;;15.13;5.80;;;8.80;99.90;;;;;;5071220;28;20032;-56
2021/05/14 04:04:29;;;;;;;6.65;5.15;;;8.80;99.90;;;;;;5071305;28;20020;-53
2021/05/14 04:06:55;;;;;;;12.10;5.60;;;8.80;99.90;;;;;;5071553;28;20458;-53
2021/05/14 04:09:30;;;;;;;6.70;5.22;;;8.80;99.90;;;;;;5071663;28;20195;-56
2021/05/14 04:14:30;;;;;;;7.28;4.88;;;8.70;99.90;;;;;;5071744;28;20025;-52
2021/05/14 04:17:06;;;;;;;9.93;5.43;;;8.70;99.90;;;;;;5071489;28;20031;-52
2021/05/14 04:19:32;;;;;;;11.15;5.97;;;8.70;99.90;;;;;;5071016;28;20032;-52
2021/05/14 04:21:59;;;;;;;8.13;5.43;;;8.70;99.90;;;;;;5072657;28;20458;-53
2021/05/14 04:24:26;;;;;;;10.85;5.65;;;8.80;99.90;;;;;;5071107;28;20024;-53
2021/05/14 04:26:54;;;;;;;13.32;5.80;;;8.80;99.90;;;;;;5072880;28;20063;-53
2021/05/14 04:29:20;;;;;;;8.95;5.25;;;8.80;99.90;;;;;;5070656;28;20448;-56
2021/05/14 04:31:47;;;;;;;10.68;5.20;;;8.80;99.90;;;;;;5072168;28;20404;-57
2021/05/14 04:34:14;;;;;;;9.63;5.50;;;8.80;99.90;;;;;;5071050;28;20025;-56
2021/05/14 04:36:41;;;;;;;12.00;4.85;;;8.80;99.90;;;;;;5070967;28;20449;-54
2021/05/14 04:39:08;;;;;;;11.82;5.05;;;8.80;99.90;;;;;;5070747;28;20028;-55
2021/05/14 04:41:33;;;;;;;8.50;4.93;;;8.80;99.90;;;;;;5070387;28;20127;-55
2021/05/14 04:44:00;;;;;;;13.45;5.13;;;8.80;99.90;;;;;;5070106;28;20111;-54
2021/05/14 04:46:26;;;;;;;8.68;5.05;;;8.90;99.90;;;;;;5070859;28;20023;-54
2021/05/14 04:48:52;;;;;;;13.93;5.32;;;8.90;99.90;;;;;;5071279;28;20029;-57
2021/05/14 04:51:17;;;;;;;12.77;6.00;;;9.00;99.90;;;;;;5072545;28;20792;-56
2021/05/14 04:53:44;;;;;;;8.30;5.28;;;9.00;99.90;;;;;;5070996;28;20021;-55
2021/05/14 04:56:12;;;;;;;12.43;5.10;;;9.00;99.90;;;;;;5070063;28;20398;-54
2021/05/14 04:58:37;;;;;;;7.10;4.75;;;9.10;99.90;;;;;;5069209;28;20040;-54
2021/05/14 05:01:03;;;;;;;8.50;4.63;;;9.10;99.90;;;;;;5072893;28;20047;-55
2021/05/14 05:03:29;;;;;;;7.47;4.63;;;9.20;99.90;;;;;;5074755;28;20024;-59
2021/05/14 05:05:55;;;;;;;8.50;4.07;;;9.20;99.90;;;;;;5070582;28;20402;-53
2021/05/14 05:08:21;;;;;;;9.30;5.00;;;9.20;99.90;;;;;;5070559;28;20027;-55
2021/05/14 05:10:46;;;;;;;10.13;4.75;;;9.30;99.90;;;;;;5071641;28;20036;-56
2021/05/14 05:13:12;;;;;;;6.03;4.20;;;9.30;99.90;;;;;;5069962;28;20399;-57
2021/05/14 05:15:38;;;;;;;6.30;4.35;;;9.40;99.90;;;;;;5070257;28;20094;-57
2021/05/14 05:18:03;;;;;;;10.38;4.38;;;9.50;99.90;;;;;;5070895;28;20032;-56
2021/05/14 05:20:29;;;;;;;9.68;4.35;;;9.50;99.90;;;;;;5070073;28;20021;-53
2021/05/14 05:22:55;;;;;;;6.75;4.28;;;9.50;99.90;;;;;;5070205;28;20538;-55
2021/05/14 05:25:21;;;;;;;6.57;4.10;;;9.60;99.90;;;;;;5069734;28;20107;-57
2021/05/14 05:27:47;;;;;;;12.30;4.82;;;9.60;99.90;;;;;;5069802;28;20483;-55
2021/05/14 05:30:13;;;;;;;8.80;4.32;;;9.70;99.90;;;;;;5069112;28;20482;-56
2021/05/14 05:32:39;;;;;;;9.20;4.68;;;9.80;99.90;;;;;;5069794;28;20032;-58
2021/05/14 05:35:05;;;;;;;8.75;4.65;;;9.80;99.90;;;;;;5071604;28;20090;-53
2021/05/14 05:37:30;;;;;;;9.07;3.92;;;9.90;99.90;;;;;;5070758;28;20474;-56
2021/05/14 05:39:56;;;;;;;5.95;3.90;;;9.90;99.90;;;;;;5069598;28;20025;-54
2021/05/14 05:44:54;;;;;;;5.80;3.95;;;10.10;99.90;;;;;;5069885;28;20076;-54
2021/05/14 05:47:20;;;;;;;4.15;3.60;;;10.10;99.90;;;;;;5077959;28;20118;-56
2021/05/14 05:49:45;;;;;;;3.83;3.00;;;10.20;99.90;;;;;;5070223;28;20104;-55
2021/05/14 05:52:11;;;;;;;7.53;3.90;;;10.20;99.90;;;;;;5069690;28;20028;-55
2021/05/14 05:54:36;;;;;;;4.15;3.28;;;10.40;99.90;;;;;;5089581;28;20572;-54
2021/05/14 05:57:02;;;;;;;4.53;3.35;;;10.50;99.90;;;;;;5092513;28;20461;-57
2021/05/14 05:59:28;;;;;;;10.13;5.00;;;10.50;99.90;;;;;;5095256;28;20034;-56
2021/05/14 06:01:53;;;;;;;8.95;3.75;;;10.60;99.90;;;;;;5092641;28;20040;-55
2021/05/14 06:04:19;;;;;;;6.40;3.38;;;10.70;99.90;;;;;;5097392;28;20028;-55
2021/05/14 06:06:45;;;;;;;6.45;2.75;;;10.80;99.90;;;;;;5095317;28;20025;-55
2021/05/14 06:09:10;;;;;;;10.68;3.38;;;10.90;99.90;;;;;;5100179;28;20050;-56
2021/05/14 06:11:36;;;;;;;5.38;3.13;;;11.00;99.90;;;;;;5093860;28;20024;-57
2021/05/14 06:14:01;;;;;;;5.82;3.40;;;11.10;99.90;;;;;;5094606;28;20032;-57
2021/05/14 06:16:28;;;;;;;5.50;3.13;;;11.20;99.90;;;;;;5094103;28;20027;-56
2021/05/14 06:19:03;;;;;;;3.15;2.53;;;11.30;99.90;;;;;;5095308;28;20039;-55
2021/05/14 06:21:29;;;;;;;6.07;2.25;;;11.40;99.90;;;;;;5094031;28;20028;-58
2021/05/14 06:23:55;;;;;;;5.85;3.50;;;11.40;99.90;;;;;;5094190;28;20028;-55
2021/05/14 06:26:20;;;;;;;4.40;2.30;;;11.40;99.90;;;;;;5097831;28;20500;-55
2021/05/14 06:28:46;;;;;;;5.82;2.30;;;11.40;99.90;;;;;;5102580;28;20031;-57
2021/05/14 06:31:11;;;;;;;7.00;2.72;;;11.50;99.90;;;;;;5094205;28;20062;-57
2021/05/14 06:33:37;;;;;;;3.97;2.10;;;11.50;99.90;;;;;;5093775;28;20535;-55
2021/05/14 06:36:04;;;;;;;4.30;2.53;;;11.60;99.90;;;;;;5093850;28;20024;-58
2021/05/14 06:38:29;;;;;;;7.22;2.70;;;11.60;99.90;;;;;;5098507;28;20110;-57
2021/05/14 06:40:55;;;;;;;6.45;2.45;;;11.60;99.90;;;;;;5097049;28;20107;-55
2021/05/14 06:43:21;;;;;;;4.60;3.08;;;11.60;99.90;;;;;;5093141;28;20446;-55
2021/05/14 06:45:46;;;;;;;8.75;3.05;;;11.50;99.90;;;;;;5093716;28;20035;-56
2021/05/14 06:48:14;;;;;;;9.68;2.92;;;11.60;99.90;;;;;;5094777;28;20482;-53
2021/05/14 06:50:41;;;;;;;5.63;2.97;;;11.70;99.90;;;;;;5093432;28;20434;-54
2021/05/14 06:53:07;;;;;;;4.32;3.00;;;11.70;99.90;;;;;;5093597;28;20490;-54
2021/05/14 06:55:34;;;;;;;5.55;3.05;;;11.80;99.90;;;;;;5092998;28;20039;-54
2021/05/14 06:58:01;;;;;;;9.50;3.67;;;11.80;99.90;;;;;;5094594;28;20043;-57
2021/05/14 07:00:26;;;;;;;6.38;2.92;;;11.90;99.90;;;;;;5092929;28;20024;-57
2021/05/14 07:02:52;;;;;;;6.45;2.97;;;12.00;99.90;;;;;;5097664;28;20046;-57
2021/05/14 07:05:18;;;;;;;8.27;3.67;;;12.20;99.90;;;;;;5092834;28;20024;-57
2021/05/14 07:07:44;;;;;;;4.70;2.58;;;12.20;99.90;;;;;;5093695;28;20024;-57
2021/05/14 07:10:11;;;;;;;5.30;2.53;;;12.30;99.90;;;;;;5092543;28;20028;-57
2021/05/14 07:12:37;;;;;;;5.82;2.63;;;12.30;99.90;;;;;;5095990;28;20028;-57
2021/05/14 07:15:04;;;;;;;6.07;2.58;;;12.40;99.90;;;;;;5094105;28;20533;-57
2021/05/14 07:17:29;;;;;;;5.45;2.80;;;12.50;99.90;;;;;;5094682;28;20039;-57
2021/05/14 07:19:55;;;;;;;11.27;2.80;;;12.60;99.90;;;;;;5092779;28;20474;-57
2021/05/14 07:22:21;;;;;;;7.25;2.75;;;12.60;99.90;;;;;;5093101;28;20024;-55
2021/05/14 07:24:47;;;;;;;10.85;3.03;;;12.70;99.90;;;;;;5093737;28;20069;-57
2021/05/14 07:27:13;;;;;;;4.18;2.20;;;12.80;99.90;;;;;;5100296;28;20397;-57
2021/05/14 07:29:39;;;;;;;8.85;2.92;;;12.90;99.90;;;;;;5093373;28;20059;-57
2021/05/14 07:32:06;;;;;;;11.65;3.63;;;13.10;99.90;;;;;;5095211;28;20039;-57
2021/05/14 07:34:31;;;;;;;4.30;2.65;;;13.30;99.90;;;;;;5103899;28;20027;-55
2021/05/14 07:36:57;;;;;;;5.85;1.90;;;13.50;99.90;;;;;;5094620;28;20054;-56
2021/05/14 07:39:22;;;;;;;8.77;2.20;;;13.50;99.90;;;;;;5091807;28;20749;-56
2021/05/14 07:41:48;;;;;;;3.75;2.22;;;13.70;99.90;;;;;;5093739;28;20036;-55
2021/05/14 07:44:13;;;;;;;5.03;2.47;;;13.80;99.90;;;;;;5095543;28;20027;-55
2021/05/14 07:46:39;;;;;;;10.25;3.58;;;13.90;99.90;;;;;;5097971;28;20032;-54
2021/05/14 07:49:05;;;;;;;6.75;3.25;;;13.90;99.90;;;;;;5093595;28;20073;-57
2021/05/14 07:51:30;;;;;;;11.20;3.42;;;13.90;99.90;;;;;;5091626;28;20020;-55
2021/05/14 07:53:57;;;;;;;8.75;3.28;;;13.90;99.90;;;;;;5092011;28;20438;-56
2021/05/14 07:56:22;;;;;;;4.20;2.50;;;13.90;99.90;;;;;;5091986;28;20027;-57
2021/05/14 07:58:48;;;;;;;8.05;3.17;;;13.90;99.90;;;;;;5100517;28;20028;-56
2021/05/14 08:01:14;;;;;;;4.57;2.58;;;13.80;99.90;;;;;;5092384;28;20032;-57
2021/05/14 08:03:39;;;;;;;4.45;2.85;;;13.80;99.90;;;;;;5098087;28;20161;-57
2021/05/14 08:06:05;;;;;;;8.02;2.53;;;13.90;99.90;;;;;;5091359;28;20020;-57
2021/05/14 08:08:34;;;;;;;3.58;2.13;;;13.70;99.90;;;;;;5091768;28;20030;-57
2021/05/14 08:11:00;;;;;;;16.00;3.20;;;13.80;99.90;;;;;;5091223;28;20047;-57
2021/05/14 08:13:26;;;;;;;13.40;3.30;;;13.90;99.90;;;;;;5100309;28;20050;-57
2021/05/14 08:15:53;;;;;;;8.75;2.72;;;13.90;99.90;;;;;;5091519;28;20490;-57
2021/05/14 08:18:19;;;;;;;5.10;2.38;;;14.00;99.90;;;;;;5098132;28;20032;-55
2021/05/14 08:20:46;;;;;;;7.07;2.42;;;14.10;99.90;;;;;;5091259;28;20393;-54
2021/05/14 08:23:12;;;;;;;6.40;2.47;;;14.20;99.90;;;;;;5101470;28;20089;-56
2021/05/14 08:25:38;;;;;;;6.50;2.08;;;14.20;99.90;;;;;;5091305;28;20052;-54
2021/05/14 08:28:04;;;;;;;4.30;2.10;;;14.30;99.90;;;;;;5092147;28;20390;-55
2021/05/14 08:30:30;;;;;;;7.35;2.42;;;14.30;99.90;;;;;;5095356;28;20074;-54
2021/05/14 08:32:56;;;;;;;6.70;2.53;;;14.40;99.90;;;;;;5096524;28;20785;-56
2021/05/14 08:35:21;;;;;;;48.08;5.50;;;14.40;99.90;;;;;;5090882;28;21692;-57
2021/05/14 08:37:48;;;;;;;10.70;2.00;;;14.60;99.90;;;;;;5098631;28;20036;-55
2021/05/14 08:40:14;;;;;;;8.60;1.60;;;14.70;99.90;;;;;;5103627;28;20023;-54
2021/05/14 08:42:43;;;;;;;7.30;2.10;;;14.90;99.90;;;;;;5096072;28;20040;-56
2021/05/14 08:45:12;;;;;;;4.68;1.73;;;15.00;99.90;;;;;;5096103;28;20735;-58
2021/05/14 08:47:39;;;;;;;4.18;1.75;;;14.90;99.90;;;;;;5092325;28;20017;-57
2021/05/14 08:50:06;;;;;;;5.45;1.95;;;15.00;99.90;;;;;;5096548;28;20031;-57
2021/05/14 08:52:40;;;;;;;4.15;2.10;;;15.00;99.90;;;;;;5091787;28;20061;-58
2021/05/14 08:55:07;;;;;;;11.50;3.28;;;15.20;99.90;;;;;;5091894;28;20485;-57
2021/05/14 08:57:33;;;;;;;5.47;3.20;;;15.30;99.90;;;;;;5093681;28;20118;-57
2021/05/14 08:59:59;;;;;;;5.72;3.17;;;15.40;99.90;;;;;;5098910;28;20122;-57
2021/05/14 09:02:25;;;;;;;5.50;3.15;;;15.50;99.90;;;;;;5090545;28;20085;-57
2021/05/14 09:04:50;;;;;;;6.25;3.55;;;15.50;99.90;;;;;;5091150;28;20034;-55
2021/05/14 09:07:18;;;;;;;7.90;4.03;;;15.40;99.90;;;;;;5090949;28;20032;-55
2021/05/14 09:10:08;;;;;;;8.93;3.45;;;15.40;99.90;;;;;;5091870;28;20032;-53
2021/05/14 09:12:44;;;;;;;6.90;2.75;;;15.50;99.90;;;;;;5089787;28;20040;-53
2021/05/14 09:15:26;;;;;;;5.80;3.28;;;15.70;99.90;;;;;;5090810;28;20028;-56
2021/05/14 09:18:15;;;;;;;4.78;3.17;;;16.00;99.90;;;;;;5091026;28;20019;-58
2021/05/14 09:20:47;;;;;;;10.85;6.85;;;16.40;99.90;;;;;;5090916;28;20028;-57
2021/05/14 09:23:15;;;;;;;6.80;3.30;;;16.70;99.90;;;;;;5073338;28;20111;-57
2021/05/14 09:25:51;;;;;;;6.45;3.50;;;16.30;99.90;;;;;;5090345;28;20036;-55
2021/05/14 09:28:41;;;;;;;6.80;3.17;;;16.60;99.90;;;;;;5099272;28;20095;-56
2021/05/14 09:31:25;;;;;;;6.38;2.78;;;16.70;99.90;;;;;;5090271;28;20024;-57
2021/05/14 09:33:59;;;;;;;5.78;2.10;;;16.60;99.90;;;;;;5089044;28;20043;-57
2021/05/14 09:36:32;;;;;;;6.13;3.38;;;16.60;99.90;;;;;;5088027;28;20132;-56
2021/05/14 09:38:59;;;;;;;8.63;3.22;;;16.60;99.90;;;;;;5090395;28;20028;-57
2021/05/14 09:41:33;;;;;;;4.20;2.75;;;16.50;99.90;;;;;;5090105;28;20466;-57
2021/05/14 09:44:07;;;;;;;6.70;2.75;;;16.40;99.90;;;;;;5105979;28;20032;-56
2021/05/14 09:46:44;;;;;;;4.38;2.05;;;16.40;99.90;;;;;;5090379;28;20024;-57
2021/05/14 09:49:13;;;;;;;5.03;2.33;;;16.30;99.90;;;;;;5090594;28;20035;-55
2021/05/14 09:51:53;;;;;;;7.53;2.28;;;16.40;99.90;;;;;;5090241;28;20270;-57
2021/05/14 09:54:19;;;;;;;4.75;2.55;;;16.30;99.90;;;;;;5109742;28;20035;-57
2021/05/14 09:56:48;;;;;;;9.35;2.42;;;16.40;99.90;;;;;;5109099;28;20080;-57
2021/05/14 09:59:14;;;;;;;4.72;2.08;;;16.30;99.90;;;;;;5095719;28;20043;-54
2021/05/14 10:01:40;;;;;;;7.28;2.50;;;16.20;99.90;;;;;;5089570;28;20074;-54
2021/05/14 10:04:05;;;;;;;5.05;1.90;;;16.10;99.90;;;;;;5091033;28;20063;-55
2021/05/14 10:06:35;;;;;;;5.47;2.03;;;16.20;99.90;;;;;;5090057;28;20052;-57
2021/05/14 10:09:07;;;;;;;5.95;2.38;;;16.40;99.90;;;;;;5090444;28;20025;-56
2021/05/14 10:11:33;;;;;;;3.67;1.80;;;16.40;99.90;;;;;;5096611;28;20111;-57
2021/05/14 10:13:59;;;;;;;3.15;1.70;;;16.60;99.90;;;;;;5090357;28;20024;-55
2021/05/14 10:16:25;;;;;;;2.83;1.60;;;16.40;99.90;;;;;;5089153;28;20031;-56
2021/05/14 10:18:53;;;;;;;11.07;1.90;;;16.40;99.90;;;;;;5073775;28;20024;-54
2021/05/14 10:21:20;;;;;;;14.15;1.60;;;16.60;99.90;;;;;;5090280;28;20016;-58
2021/05/14 10:23:46;;;;;;;8.68;1.60;;;16.60;99.90;;;;;;5089771;28;20466;-55
2021/05/14 10:26:13;;;;;;;17.35;2.00;;;16.70;99.90;;;;;;5096319;28;20106;-56
2021/05/14 10:28:47;;;;;;;243.25;17.48;;;16.70;99.90;;;;;;5089288;28;20105;-57
2021/05/14 10:31:17;;;;;;;2.97;1.20;;;16.50;99.90;;;;;;5096763;28;20128;-57
2021/05/14 10:33:57;;;;;;;5.95;2.13;;;16.50;99.90;;;;;;5092466;28;20032;-57
2021/05/14 10:36:24;;;;;;;3.92;1.55;;;16.40;99.90;;;;;;5089733;28;20015;-57
2021/05/14 10:39:02;;;;;;;2.35;1.15;;;16.40;99.90;;;;;;5090030;28;20390;-55
2021/05/14 10:41:29;;;;;;;3.65;1.25;;;16.40;99.90;;;;;;5083421;28;20390;-55
2021/05/14 10:44:07;;;;;;;3.75;1.08;;;16.30;99.90;;;;;;5094706;28;20036;-55
2021/05/14 10:46:34;;;;;;;7.85;1.10;;;16.20;99.90;;;;;;5084185;28;20415;-56
2021/05/14 10:49:05;;;;;;;15.43;1.45;;;16.20;99.90;;;;;;5095201;28;20043;-57
2021/05/14 10:52:00;;;;;;;2.63;1.30;;;16.00;99.90;;;;;;5098571;28;20023;-57
2021/05/14 10:54:37;;;;;;;3.83;0.93;;;15.80;99.90;;;;;;5075817;28;20403;-52
2021/05/14 10:57:04;;;;;;;1.50;0.85;;;15.30;99.90;;;;;;5094290;28;20094;-57
2021/05/14 10:59:34;;;;;;;1.83;1.00;;;14.80;99.90;;;;;;5097862;28;20020;-55
2021/05/14 11:02:01;;;;;;;2.35;1.05;;;14.60;99.90;;;;;;5074991;28;20089;-58
2021/05/14 11:04:26;;;;;;;1.50;0.98;;;14.50;99.90;;;;;;5095919;28;20401;-57
2021/05/14 11:06:53;;;;;;;3.60;1.20;;;14.50;99.90;;;;;;5093967;28;20512;-58
2021/05/14 11:09:23;;;;;;;1.05;0.80;;;14.50;99.90;;;;;;5092808;28;20032;-57
2021/05/14 11:12:10;;;;;;;6.47;0.95;;;14.30;99.90;;;;;;5095653;28;20389;-56
2021/05/14 11:14:46;;;;;;;3.17;1.00;;;14.20;99.90;;;;;;5089187;28;20032;-57
2021/05/14 11:17:13;;;;;;;0.95;0.70;;;14.30;99.90;;;;;;5092561;28;20029;-57
2021/05/14 11:19:47;;;;;;;1.60;0.60;;;14.50;99.90;;;;;;5093462;28;20032;-57
2021/05/14 11:22:25;;;;;;;1.67;0.75;;;14.60;99.90;;;;;;5092754;28;20089;-57
2021/05/14 11:25:13;;;;;;;2.63;0.50;;;14.80;99.90;;;;;;5093108;28;20130;-56
2021/05/14 11:27:39;;;;;;;6.82;1.35;;;14.80;99.90;;;;;;5099987;28;20450;-56
2021/05/14 11:30:07;;;;;;;2.08;0.57;;;15.00;99.90;;;;;;5093153;28;20027;-55
2021/05/14 11:32:37;;;;;;;1.77;0.85;;;15.10;99.90;;;;;;5092154;28;20099;-55
2021/05/14 11:35:16;;;;;;;1.05;0.60;;;15.40;99.90;;;;;;5093107;28;20543;-56
2021/05/14 11:37:54;;;;;;;1.67;0.70;;;15.40;99.90;;;;;;5087610;28;20531;-57
2021/05/14 11:40:28;;;;;;;2.17;0.77;;;15.60;99.90;;;;;;5093379;28;20077;-56
2021/05/14 11:45:24;;;;;;;3.65;0.63;;;15.80;99.90;;;;;;5104936;22;20048;-54
2021/05/14 11:48:08;;;;;;;2.45;0.60;;;16.00;99.90;;;;;;5092021;28;20016;-55
2021/05/14 11:50:37;;;;;;;1.67;0.50;;;16.30;99.90;;;;;;5091388;28;20043;-56
2021/05/14 11:53:06;;;;;;;1.08;0.43;;;16.90;99.90;;;;;;5091404;28;20020;-54
2021/05/14 11:55:36;;;;;;;2.38;0.88;;;17.70;99.90;;;;;;5091231;28;20024;-52
2021/05/14 11:58:02;;;;;;;2.05;0.50;;;18.30;99.90;;;;;;5076826;28;20090;-55
2021/05/14 12:00:38;;;;;;;1.15;0.52;;;18.80;99.90;;;;;;5075263;28;20032;-53
2021/05/14 12:03:16;;;;;;;1.55;0.40;;;18.80;99.90;;;;;;5072101;28;20032;-57
2021/05/14 12:05:43;;;;;;;1.52;0.70;;;18.60;99.90;;;;;;5077243;28;20032;-54
2021/05/14 12:08:13;;;;;;;5.25;0.52;;;18.20;99.90;;;;;;5077415;28;20024;-54
2021/05/14 12:10:57;;;;;;;0.55;0.47;;;17.90;99.90;;;;;;5090759;28;20085;-55
2021/05/14 12:13:22;;;;;;;1.30;0.40;;;17.70;99.90;;;;;;5076033;28;20115;-56
2021/05/14 12:16:05;;;;;;;1.95;0.50;;;17.50;99.90;;;;;;5083491;28;20107;-54
2021/05/14 12:18:36;;;;;;;1.17;0.43;;;17.40;99.90;;;;;;5077011;28;20119;-54
2021/05/14 12:21:06;;;;;;;0.60;0.30;;;17.20;99.90;;;;;;5079265;28;20632;-56
2021/05/14 12:23:32;;;;;;;1.35;0.47;;;17.30;99.90;;;;;;5073949;28;20036;-53
2021/05/14 12:26:00;;;;;;;2.85;0.73;;;17.30;99.90;;;;;;5070878;28;20548;-53
2021/05/14 12:28:40;;;;;;;0.73;0.25;;;17.50;99.90;;;;;;5074234;28;20020;-55
2021/05/14 12:31:11;;;;;;;1.10;0.50;;;17.50;99.90;;;;;;5066152;28;20028;-54
2021/05/14 12:33:47;;;;;;;3.63;0.30;;;17.80;99.90;;;;;;5074602;28;20105;-54
2021/05/14 12:36:13;;;;;;;50.58;2.97;;;18.20;99.90;;;;;;5073110;28;20023;-54
2021/05/14 12:38:40;;;;;;;1.50;0.40;;;18.60;99.90;;;;;;5068921;28;20108;-54
2021/05/14 12:41:27;;;;;;;1.52;0.30;;;19.10;99.90;;;;;;5078345;28;20087;-53
2021/05/14 12:44:25;;;;;;;15.65;1.60;;;19.20;99.90;;;;;;5076044;28;20533;-55
2021/05/14 12:47:13;;;;;;;1.73;0.40;;;19.10;99.90;;;;;;5070767;28;20025;-53
2021/05/14 12:49:46;;;;;;;1.85;0.30;;;19.70;99.90;;;;;;5069133;28;20029;-52
2021/05/14 12:52:18;;;;;;;0.68;0.40;;;19.80;97.20;;;;;;5070753;28;20548;-53
2021/05/14 12:54:54;;;;;;;0.95;0.45;;;19.40;97.30;;;;;;5077924;28;20078;-52
2021/05/14 12:57:37;;;;;;;393.52;32.03;;;19.50;98.30;;;;;;5072943;28;20028;-53
2021/05/14 13:00:14;;;;;;;2.58;0.32;;;19.50;99.60;;;;;;5076313;28;20025;-53